sensor_id;sensor_type;location;lat;lon;timestamp;pressure;altitude;pressure_sealevel;temperature;humidity
68594;BME280;55563;52.416;13.548;2022-10-31T00:01:26;101437.25;;;10.78;100.00
68594;BME280;55563;52.416;13.548;2022-10-31T00:03:27;101433.81;;;10.78;100.00
68594;BME280;55563;52.416;13.548;2022-10-31T00:05:28;101438.50;;;10.76;100.00
68594;BME280;55563;52.416;13.548;2022-10-31T00:07:28;101441.84;;;10.71;100.00
68594;BME280;55563;52.416;13.548;2022-10-31T00:09:29;101450.31;;;10.73;100.00
68594;BME280;55563;52.416;13.548;2022-10-31T00:11:30;101435.25;;;10.69;100.00
68594;BME280;55563;52.416;13.548;2022-10-31T00:13:31;101428.72;;;10.55;100.00
68594;BME280;55563;52.416;13.548;2022-10-31T00:15:33;101436.69;;;10.60;100.00
68594;BME280;55563;52.416;13.548;2022-10-31T00:17:35;101441.38;;;10.58;100.00
68594;BME280;55563;52.416;13.548;2022-10-31T00:19:36;101439.84;;;10.45;100.00
68594;BME280;55563;52.416;13.548;2022-10-31T00:21:37;101443.69;;;10.54;100.00
68594;BME280;55563;52.416;13.548;2022-10-31T00:23:37;101440.34;;;10.59;100.00
68594;BME280;55563;52.416;13.548;2022-10-31T00:25:39;101438.25;;;10.61;100.00
68594;BME280;55563;52.416;13.548;2022-10-31T00:27:40;101442.47;;;10.62;100.00
68594;BME280;55563;52.416;13.548;2022-10-31T00:29:41;101445.03;;;10.57;100.00
68594;BME280;55563;52.416;13.548;2022-10-31T00:33:58;101448.94;;;10.54;100.00
68594;BME280;55563;52.416;13.548;2022-10-31T00:36:00;101455.84;;;10.43;100.00
68594;BME280;55563;52.416;13.548;2022-10-31T00:38:01;101455.13;;;10.48;100.00
68594;BME280;55563;52.416;13.548;2022-10-31T00:40:02;101453.09;;;10.50;100.00
68594;BME280;55563;52.416;13.548;2022-10-31T00:42:03;101451.00;;;10.52;100.00
68594;BME280;55563;52.416;13.548;2022-10-31T00:44:03;101451.22;;;10.50;100.00
68594;BME280;55563;52.416;13.548;2022-10-31T00:46:04;101456.97;;;10.47;100.00
68594;BME280;55563;52.416;13.548;2022-10-31T00:48:05;101458.69;;;10.42;100.00
68594;BME280;55563;52.416;13.548;2022-10-31T00:50:07;101463.97;;;10.42;100.00
68594;BME280;55563;52.416;13.548;2022-10-31T00:52:07;101464.56;;;10.32;100.00
68594;BME280;55563;52.416;13.548;2022-10-31T00:54:08;101470.94;;;10.36;100.00
68594;BME280;55563;52.416;13.548;2022-10-31T00:56:12;101468.09;;;10.38;100.00
68594;BME280;55563;52.416;13.548;2022-10-31T00:58:12;101468.91;;;10.38;100.00
68594;BME280;55563;52.416;13.548;2022-10-31T01:00:14;101467.56;;;10.36;100.00
68594;BME280;55563;52.416;13.548;2022-10-31T01:02:16;101466.97;;;10.34;100.00
68594;BME280;55563;52.416;13.548;2022-10-31T01:04:16;101464.84;;;10.31;100.00
68594;BME280;55563;52.416;13.548;2022-10-31T01:06:17;101472.38;;;10.27;100.00
68594;BME280;55563;52.416;13.548;2022-10-31T01:08:17;101472.47;;;10.32;100.00
68594;BME280;55563;52.416;13.548;2022-10-31T01:10:18;101468.22;;;10.31;100.00
68594;BME280;55563;52.416;13.548;2022-10-31T01:12:19;101469.38;;;10.35;100.00
68594;BME280;55563;52.416;13.548;2022-10-31T01:14:19;101483.72;;;10.44;100.00
68594;BME280;55563;52.416;13.548;2022-10-31T01:16:23;101476.03;;;10.55;100.00
68594;BME280;55563;52.416;13.548;2022-10-31T01:18:24;101477.13;;;10.59;100.00
68594;BME280;55563;52.416;13.548;2022-10-31T01:20:25;101482.00;;;10.67;100.00
68594;BME280;55563;52.416;13.548;2022-10-31T01:22:27;101484.72;;;10.72;100.00
68594;BME280;55563;52.416;13.548;2022-10-31T01:24:28;101474.44;;;10.70;100.00
68594;BME280;55563;52.416;13.548;2022-10-31T01:26:30;101478.44;;;10.73;100.00
68594;BME280;55563;52.416;13.548;2022-10-31T01:28:31;101472.84;;;10.69;100.00
68594;BME280;55563;52.416;13.548;2022-10-31T01:30:32;101483.03;;;10.66;100.00
68594;BME280;55563;52.416;13.548;2022-10-31T01:32:33;101470.53;;;10.73;100.00
68594;BME280;55563;52.416;13.548;2022-10-31T01:34:34;101475.72;;;10.68;100.00
68594;BME280;55563;52.416;13.548;2022-10-31T01:36:37;101473.22;;;10.61;100.00
68594;BME280;55563;52.416;13.548;2022-10-31T01:38:39;101472.28;;;10.67;100.00
68594;BME280;55563;52.416;13.548;2022-10-31T01:40:40;101465.59;;;10.60;100.00
68594;BME280;55563;52.416;13.548;2022-10-31T01:42:41;101484.13;;;10.53;100.00
68594;BME280;55563;52.416;13.548;2022-10-31T01:46:56;101473.75;;;10.46;100.00
68594;BME280;55563;52.416;13.548;2022-10-31T01:49:00;101480.31;;;10.44;100.00
68594;BME280;55563;52.416;13.548;2022-10-31T01:51:03;101485.88;;;10.47;100.00
68594;BME280;55563;52.416;13.548;2022-10-31T01:53:06;101488.81;;;10.51;100.00
68594;BME280;55563;52.416;13.548;2022-10-31T01:55:13;101483.19;;;10.59;100.00
68594;BME280;55563;52.416;13.548;2022-10-31T01:57:17;101482.94;;;10.61;100.00
68594;BME280;55563;52.416;13.548;2022-10-31T01:59:20;101478.03;;;10.64;100.00
68594;BME280;55563;52.416;13.548;2022-10-31T02:01:22;101480.75;;;10.69;100.00
68594;BME280;55563;52.416;13.548;2022-10-31T02:03:23;101478.44;;;10.73;100.00
68594;BME280;55563;52.416;13.548;2022-10-31T02:05:27;101485.50;;;10.72;100.00
68594;BME280;55563;52.416;13.548;2022-10-31T02:07:35;101494.91;;;10.68;100.00
68594;BME280;55563;52.416;13.548;2022-10-31T02:09:38;101492.19;;;10.63;100.00
68594;BME280;55563;52.416;13.548;2022-10-31T02:11:41;101489.31;;;10.65;100.00
68594;BME280;55563;52.416;13.548;2022-10-31T02:13:47;101494.34;;;10.66;100.00
68594;BME280;55563;52.416;13.548;2022-10-31T02:15:52;101494.03;;;10.63;100.00
68594;BME280;55563;52.416;13.548;2022-10-31T02:17:53;101487.75;;;10.64;100.00
68594;BME280;55563;52.416;13.548;2022-10-31T02:20:18;101486.94;;;10.63;100.00
68594;BME280;55563;52.416;13.548;2022-10-31T02:22:48;101489.00;;;10.61;100.00
68594;BME280;55563;52.416;13.548;2022-10-31T02:25:51;101494.03;;;10.63;100.00
68594;BME280;55563;52.416;13.548;2022-10-31T02:30:20;101486.63;;;10.60;100.00
68594;BME280;55563;52.416;13.548;2022-10-31T02:35:47;101496.38;;;10.47;100.00
68594;BME280;55563;52.416;13.548;2022-10-31T02:40:30;101495.28;;;10.43;100.00
68594;BME280;55563;52.416;13.548;2022-10-31T02:43:05;101491.75;;;10.38;100.00
68594;BME280;55563;52.416;13.548;2022-10-31T02:45:13;101487.06;;;10.40;100.00
68594;BME280;55563;52.416;13.548;2022-10-31T02:47:17;101491.44;;;10.34;100.00
68594;BME280;55563;52.416;13.548;2022-10-31T02:49:27;101491.97;;;10.36;100.00
68594;BME280;55563;52.416;13.548;2022-10-31T02:51:30;101493.56;;;10.37;100.00
68594;BME280;55563;52.416;13.548;2022-10-31T02:53:34;101489.13;;;10.38;100.00
68594;BME280;55563;52.416;13.548;2022-10-31T02:57:50;101506.25;;;10.40;100.00
68594;BME280;55563;52.416;13.548;2022-10-31T03:00:03;101498.69;;;10.44;100.00
68594;BME280;55563;52.416;13.548;2022-10-31T03:04:39;101507.22;;;10.51;100.00
68594;BME280;55563;52.416;13.548;2022-10-31T03:09:30;101507.94;;;10.46;100.00
68594;BME280;55563;52.416;13.548;2022-10-31T03:11:43;101505.06;;;10.48;100.00
68594;BME280;55563;52.416;13.548;2022-10-31T03:13:51;101510.34;;;10.48;100.00
68594;BME280;55563;52.416;13.548;2022-10-31T03:16:06;101510.09;;;10.49;100.00
68594;BME280;55563;52.416;13.548;2022-10-31T03:18:15;101511.44;;;10.52;100.00
68594;BME280;55563;52.416;13.548;2022-10-31T03:20:21;101526.19;;;10.53;100.00
68594;BME280;55563;52.416;13.548;2022-10-31T03:22:25;101534.09;;;10.53;100.00
68594;BME280;55563;52.416;13.548;2022-10-31T03:24:30;101527.53;;;10.56;100.00
68594;BME280;55563;52.416;13.548;2022-10-31T03:26:35;101530.16;;;10.56;100.00
68594;BME280;55563;52.416;13.548;2022-10-31T03:29:03;101528.59;;;10.55;100.00
68594;BME280;55563;52.416;13.548;2022-10-31T03:31:05;101528.81;;;10.53;100.00
68594;BME280;55563;52.416;13.548;2022-10-31T03:33:14;101529.63;;;10.54;100.00
68594;BME280;55563;52.416;13.548;2022-10-31T03:35:18;101528.59;;;10.55;100.00
68594;BME280;55563;52.416;13.548;2022-10-31T03:37:22;101533.06;;;10.54;100.00
68594;BME280;55563;52.416;13.548;2022-10-31T03:39:25;101529.06;;;10.52;100.00
68594;BME280;55563;52.416;13.548;2022-10-31T03:41:29;101534.63;;;10.55;100.00
68594;BME280;55563;52.416;13.548;2022-10-31T03:43:37;101529.63;;;10.54;100.00
68594;BME280;55563;52.416;13.548;2022-10-31T03:45:44;101536.47;;;10.55;100.00
68594;BME280;55563;52.416;13.548;2022-10-31T03:47:46;101539.56;;;10.52;100.00
68594;BME280;55563;52.416;13.548;2022-10-31T03:49:47;101543.00;;;10.52;100.00
68594;BME280;55563;52.416;13.548;2022-10-31T03:52:02;101545.63;;;10.52;100.00
68594;BME280;55563;52.416;13.548;2022-10-31T03:54:09;101555.09;;;10.53;100.00
68594;BME280;55563;52.416;13.548;2022-10-31T03:56:19;101556.13;;;10.52;100.00
68594;BME280;55563;52.416;13.548;2022-10-31T03:58:29;101557.75;;;10.53;100.00
68594;BME280;55563;52.416;13.548;2022-10-31T04:00:33;101559.25;;;10.49;100.00
68594;BME280;55563;52.416;13.548;2022-10-31T04:02:39;101562.19;;;10.53;100.00
68594;BME280;55563;52.416;13.548;2022-10-31T04:04:43;101558.53;;;10.54;100.00
68594;BME280;55563;52.416;13.548;2022-10-31T04:06:47;101560.38;;;10.53;100.00
68594;BME280;55563;52.416;13.548;2022-10-31T04:08:54;101559.78;;;10.51;100.00
68594;BME280;55563;52.416;13.548;2022-10-31T04:10:59;101555.25;;;10.46;100.00
68594;BME280;55563;52.416;13.548;2022-10-31T04:13:05;101563.91;;;10.47;100.00
68594;BME280;55563;52.416;13.548;2022-10-31T04:15:28;101560.84;;;10.50;100.00
68594;BME280;55563;52.416;13.548;2022-10-31T04:17:33;101565.53;;;10.48;100.00
68594;BME280;55563;52.416;13.548;2022-10-31T04:19:35;101560.03;;;10.49;100.00
68594;BME280;55563;52.416;13.548;2022-10-31T04:21:36;101569.50;;;10.50;100.00
68594;BME280;55563;52.416;13.548;2022-10-31T04:23:37;101568.38;;;10.46;100.00
68594;BME280;55563;52.416;13.548;2022-10-31T04:25:47;101569.28;;;10.52;100.00
68594;BME280;55563;52.416;13.548;2022-10-31T04:27:47;101568.25;;;10.53;100.00
68594;BME280;55563;52.416;13.548;2022-10-31T04:29:48;101566.44;;;10.54;100.00
68594;BME280;55563;52.416;13.548;2022-10-31T04:31:49;101569.28;;;10.52;100.00
68594;BME280;55563;52.416;13.548;2022-10-31T04:33:51;101571.69;;;10.54;100.00
68594;BME280;55563;52.416;13.548;2022-10-31T04:35:52;101564.81;;;10.53;100.00
68594;BME280;55563;52.416;13.548;2022-10-31T04:37:52;101569.84;;;10.54;100.00
68594;BME280;55563;52.416;13.548;2022-10-31T04:39:55;101575.66;;;10.56;100.00
68594;BME280;55563;52.416;13.548;2022-10-31T04:42:15;101569.84;;;10.54;100.00
68594;BME280;55563;52.416;13.548;2022-10-31T04:44:16;101574.31;;;10.54;100.00
68594;BME280;55563;52.416;13.548;2022-10-31T04:46:19;101572.47;;;10.54;100.00
68594;BME280;55563;52.416;13.548;2022-10-31T04:48:21;101574.22;;;10.48;100.00
68594;BME280;55563;52.416;13.548;2022-10-31T04:50:22;101583.44;;;10.51;100.00
68594;BME280;55563;52.416;13.548;2022-10-31T04:52:22;101579.47;;;10.48;100.00
68594;BME280;55563;52.416;13.548;2022-10-31T04:54:23;101583.69;;;10.49;100.00
68594;BME280;55563;52.416;13.548;2022-10-31T04:56:43;101585.53;;;10.49;100.00
68594;BME280;55563;52.416;13.548;2022-10-31T04:58:49;101584.72;;;10.48;100.00
68594;BME280;55563;52.416;13.548;2022-10-31T05:00:52;101577.06;;;10.47;100.00
68594;BME280;55563;52.416;13.548;2022-10-31T05:02:55;101578.34;;;10.44;100.00
68594;BME280;55563;52.416;13.548;2022-10-31T05:04:58;101571.25;;;10.45;100.00
68594;BME280;55563;52.416;13.548;2022-10-31T05:06:59;101579.69;;;10.47;100.00
68594;BME280;55563;52.416;13.548;2022-10-31T05:08:59;101584.94;;;10.47;100.00
68594;BME280;55563;52.416;13.548;2022-10-31T05:11:01;101580.97;;;10.44;100.00
68594;BME280;55563;52.416;13.548;2022-10-31T05:13:03;101586.69;;;10.41;100.00
68594;BME280;55563;52.416;13.548;2022-10-31T05:15:26;101583.50;;;10.39;100.00
68594;BME280;55563;52.416;13.548;2022-10-31T05:17:48;101591.59;;;10.38;100.00
68594;BME280;55563;52.416;13.548;2022-10-31T05:20:10;101590.00;;;10.37;100.00
68594;BME280;55563;52.416;13.548;2022-10-31T05:22:30;101590.81;;;10.37;100.00
68594;BME280;55563;52.416;13.548;2022-10-31T05:24:31;101592.63;;;10.37;100.00
68594;BME280;55563;52.416;13.548;2022-10-31T05:26:32;101590.00;;;10.37;100.00
68594;BME280;55563;52.416;13.548;2022-10-31T05:28:33;101600.19;;;10.33;100.00
68594;BME280;55563;52.416;13.548;2022-10-31T05:30:34;101600.19;;;10.33;100.00
68594;BME280;55563;52.416;13.548;2022-10-31T05:32:40;101594.25;;;10.38;100.00
68594;BME280;55563;52.416;13.548;2022-10-31T05:35:01;101598.69;;;10.37;100.00
68594;BME280;55563;52.416;13.548;2022-10-31T05:37:22;101600.78;;;10.35;100.00
68594;BME280;55563;52.416;13.548;2022-10-31T05:39:22;101606.03;;;10.35;100.00
68594;BME280;55563;52.416;13.548;2022-10-31T05:41:28;101603.16;;;10.37;100.00
68594;BME280;55563;52.416;13.548;2022-10-31T05:43:38;101612.31;;;10.34;100.00
68594;BME280;55563;52.416;13.548;2022-10-31T05:45:40;101608.66;;;10.35;100.00
68594;BME280;55563;52.416;13.548;2022-10-31T05:47:52;101602.34;;;10.36;100.00
68594;BME280;55563;52.416;13.548;2022-10-31T05:50:13;101603.03;;;10.32;100.00
68594;BME280;55563;52.416;13.548;2022-10-31T05:52:20;101598.84;;;10.31;100.00
68594;BME280;55563;52.416;13.548;2022-10-31T05:54:28;101596.44;;;10.29;100.00
68594;BME280;55563;52.416;13.548;2022-10-31T05:56:29;101599.28;;;10.28;100.00
68594;BME280;55563;52.416;13.548;2022-10-31T05:58:29;101601.22;;;10.32;100.00
68594;BME280;55563;52.416;13.548;2022-10-31T06:00:36;101600.19;;;10.33;100.00
68594;BME280;55563;52.416;13.548;2022-10-31T06:02:41;101611.50;;;10.34;100.00
68594;BME280;55563;52.416;13.548;2022-10-31T06:04:55;101611.97;;;10.31;100.00
68594;BME280;55563;52.416;13.548;2022-10-31T06:06:57;101611.97;;;10.31;100.00
68594;BME280;55563;52.416;13.548;2022-10-31T06:08:57;101611.41;;;10.29;100.00
68594;BME280;55563;52.416;13.548;2022-10-31T06:10:59;101616.19;;;10.32;100.00
68594;BME280;55563;52.416;13.548;2022-10-31T06:13:20;101607.75;;;10.30;100.00
68594;BME280;55563;52.416;13.548;2022-10-31T06:15:27;101613.00;;;10.30;100.00
68594;BME280;55563;52.416;13.548;2022-10-31T06:17:29;101611.72;;;10.32;100.00
68594;BME280;55563;52.416;13.548;2022-10-31T06:19:49;101617.78;;;10.33;100.00
68594;BME280;55563;52.416;13.548;2022-10-31T06:21:54;101621.00;;;10.35;100.00
68594;BME280;55563;52.416;13.548;2022-10-31T06:23:55;101621.78;;;10.35;100.00
68594;BME280;55563;52.416;13.548;2022-10-31T06:26:05;101623.84;;;10.33;100.00
68594;BME280;55563;52.416;13.548;2022-10-31T06:28:05;101626.47;;;10.33;100.00
68594;BME280;55563;52.416;13.548;2022-10-31T06:30:18;101627.59;;;10.37;100.00
68594;BME280;55563;52.416;13.548;2022-10-31T06:32:20;101631.84;;;10.38;100.00
68594;BME280;55563;52.416;13.548;2022-10-31T06:34:20;101636.28;;;10.38;100.00
68594;BME280;55563;52.416;13.548;2022-10-31T06:36:21;101632.41;;;10.40;100.00
68594;BME280;55563;52.416;13.548;2022-10-31T06:38:22;101637.41;;;10.42;100.00
68594;BME280;55563;52.416;13.548;2022-10-31T06:40:23;101638.78;;;10.44;100.00
68594;BME280;55563;52.416;13.548;2022-10-31T06:42:43;101638.31;;;10.47;100.00
68594;BME280;55563;52.416;13.548;2022-10-31T06:44:44;101642.88;;;10.52;100.00
68594;BME280;55563;52.416;13.548;2022-10-31T06:47:05;101645.72;;;10.50;100.00
68594;BME280;55563;52.416;13.548;2022-10-31T06:49:25;101656.03;;;10.52;100.00
68594;BME280;55563;52.416;13.548;2022-10-31T06:51:29;101652.59;;;10.52;100.00
68594;BME280;55563;52.416;13.548;2022-10-31T06:53:29;101658.66;;;10.52;100.00
68594;BME280;55563;52.416;13.548;2022-10-31T06:55:31;101664.22;;;10.56;100.00
68594;BME280;55563;52.416;13.548;2022-10-31T06:57:31;101665.03;;;10.56;100.00
68594;BME280;55563;52.416;13.548;2022-10-31T06:59:32;101665.03;;;10.56;100.00
68594;BME280;55563;52.416;13.548;2022-10-31T07:01:52;101658.53;;;10.59;100.00
68594;BME280;55563;52.416;13.548;2022-10-31T07:03:52;101663.78;;;10.59;100.00
68594;BME280;55563;52.416;13.548;2022-10-31T07:05:55;101658.06;;;10.62;100.00
68594;BME280;55563;52.416;13.548;2022-10-31T07:07:59;101659.44;;;10.64;100.00
68594;BME280;55563;52.416;13.548;2022-10-31T07:10:01;101661.25;;;10.64;100.00
68594;BME280;55563;52.416;13.548;2022-10-31T07:12:18;101658.94;;;10.67;100.00
68594;BME280;55563;52.416;13.548;2022-10-31T07:14:30;101663.28;;;10.73;100.00
68594;BME280;55563;52.416;13.548;2022-10-31T07:16:30;101656.19;;;10.74;100.00
68594;BME280;55563;52.416;13.548;2022-10-31T07:18:32;101660.41;;;10.75;100.00
68594;BME280;55563;52.416;13.548;2022-10-31T07:20:34;101666.47;;;10.75;100.00
68594;BME280;55563;52.416;13.548;2022-10-31T07:22:35;101666.25;;;10.77;100.00
68594;BME280;55563;52.416;13.548;2022-10-31T07:24:38;101675.47;;;10.79;100.00
68594;BME280;55563;52.416;13.548;2022-10-31T07:26:59;101684.28;;;10.85;100.00
68594;BME280;55563;52.416;13.548;2022-10-31T07:29:00;101678.78;;;10.86;100.00
68594;BME280;55563;52.416;13.548;2022-10-31T07:31:02;101674.44;;;10.92;100.00
68594;BME280;55563;52.416;13.548;2022-10-31T07:33:03;101677.59;;;10.94;100.00
68594;BME280;55563;52.416;13.548;2022-10-31T07:35:26;101677.47;;;11.01;100.00
68594;BME280;55563;52.416;13.548;2022-10-31T07:37:30;101679.16;;;11.07;100.00
68594;BME280;55563;52.416;13.548;2022-10-31T07:39:33;101679.81;;;11.14;100.00
68594;BME280;55563;52.416;13.548;2022-10-31T07:41:34;101682.31;;;11.20;100.00
68594;BME280;55563;52.416;13.548;2022-10-31T07:43:35;101694.28;;;11.28;100.00
68594;BME280;55563;52.416;13.548;2022-10-31T07:46:02;101697.06;;;11.38;100.00
68594;BME280;55563;52.416;13.548;2022-10-31T07:48:23;101691.59;;;11.56;100.00
68594;BME280;55563;52.416;13.548;2022-10-31T07:50:44;101695.69;;;11.80;100.00
68594;BME280;55563;52.416;13.548;2022-10-31T07:53:07;101696.88;;;11.90;100.00
68594;BME280;55563;52.416;13.548;2022-10-31T07:55:23;101692.56;;;12.00;100.00
68594;BME280;55563;52.416;13.548;2022-10-31T07:57:24;101694.63;;;12.15;100.00
68594;BME280;55563;52.416;13.548;2022-10-31T07:59:24;101695.56;;;12.26;100.00
68594;BME280;55563;52.416;13.548;2022-10-31T08:01:27;101692.88;;;12.20;100.00
68594;BME280;55563;52.416;13.548;2022-10-31T08:03:48;101706.03;;;12.37;100.00
68594;BME280;55563;52.416;13.548;2022-10-31T08:06:08;101691.09;;;12.48;100.00
68594;BME280;55563;52.416;13.548;2022-10-31T08:08:29;101693.13;;;12.62;100.00
68594;BME280;55563;52.416;13.548;2022-10-31T08:10:31;101700.50;;;12.82;100.00
68594;BME280;55563;52.416;13.548;2022-10-31T08:12:32;101702.38;;;12.87;100.00
68594;BME280;55563;52.416;13.548;2022-10-31T08:14:33;101701.22;;;12.99;100.00
68594;BME280;55563;52.416;13.548;2022-10-31T08:16:34;101696.34;;;13.40;100.00
68594;BME280;55563;52.416;13.548;2022-10-31T08:18:38;101704.00;;;13.68;100.00
68594;BME280;55563;52.416;13.548;2022-10-31T08:20:43;101698.81;;;13.46;100.00
68594;BME280;55563;52.416;13.548;2022-10-31T08:22:53;101688.78;;;13.48;100.00
68594;BME280;55563;52.416;13.548;2022-10-31T08:24:54;101702.25;;;13.47;100.00
68594;BME280;55563;52.416;13.548;2022-10-31T08:26:54;101700.03;;;13.39;100.00
68594;BME280;55563;52.416;13.548;2022-10-31T08:28:55;101701.13;;;13.43;100.00
68594;BME280;55563;52.416;13.548;2022-10-31T08:30:58;101701.94;;;13.43;100.00
68594;BME280;55563;52.416;13.548;2022-10-31T08:33:25;101718.28;;;13.40;100.00
68594;BME280;55563;52.416;13.548;2022-10-31T08:35:46;101722.88;;;13.50;100.00
68594;BME280;55563;52.416;13.548;2022-10-31T08:38:09;101724.19;;;13.47;100.00
68594;BME280;55563;52.416;13.548;2022-10-31T08:40:11;101718.16;;;13.52;100.00
68594;BME280;55563;52.416;13.548;2022-10-31T08:42:14;101717.44;;;13.62;100.00
68594;BME280;55563;52.416;13.548;2022-10-31T08:44:15;101712.63;;;13.59;100.00
68594;BME280;55563;52.416;13.548;2022-10-31T08:46:17;101716.91;;;13.65;100.00
68594;BME280;55563;52.416;13.548;2022-10-31T08:48:18;101714.06;;;13.71;100.00
68594;BME280;55563;52.416;13.548;2022-10-31T08:50:19;101712.19;;;13.72;100.00
68594;BME280;55563;52.416;13.548;2022-10-31T08:52:23;101722.56;;;13.78;100.00
68594;BME280;55563;52.416;13.548;2022-10-31T08:54:26;101703.34;;;13.88;100.00
68594;BME280;55563;52.416;13.548;2022-10-31T08:56:42;101715.72;;;13.82;100.00
68594;BME280;55563;52.416;13.548;2022-10-31T08:58:57;101707.78;;;13.82;100.00
68594;BME280;55563;52.416;13.548;2022-10-31T09:01:08;101703.63;;;13.91;100.00
68594;BME280;55563;52.416;13.548;2022-10-31T09:03:27;101710.28;;;13.94;100.00
68594;BME280;55563;52.416;13.548;2022-10-31T09:05:29;101706.34;;;14.02;100.00
68594;BME280;55563;52.416;13.548;2022-10-31T09:07:31;101714.00;;;13.98;100.00
68594;BME280;55563;52.416;13.548;2022-10-31T09:09:32;101712.41;;;13.97;100.00
68594;BME280;55563;52.416;13.548;2022-10-31T09:11:34;101709.53;;;14.04;100.00
68594;BME280;55563;52.416;13.548;2022-10-31T09:13:54;101707.78;;;14.14;100.00
68594;BME280;55563;52.416;13.548;2022-10-31T09:16:15;101715.38;;;14.11;100.00
68594;BME280;55563;52.416;13.548;2022-10-31T09:18:17;101725.22;;;14.20;100.00
68594;BME280;55563;52.416;13.548;2022-10-31T09:20:24;101720.22;;;14.19;100.00
68594;BME280;55563;52.416;13.548;2022-10-31T09:22:26;101723.66;;;14.19;100.00
68594;BME280;55563;52.416;13.548;2022-10-31T09:24:27;101718.03;;;14.11;100.00
68594;BME280;55563;52.416;13.548;2022-10-31T09:26:27;101726.53;;;14.13;100.00
68594;BME280;55563;52.416;13.548;2022-10-31T09:28:48;101725.72;;;14.12;100.00
68594;BME280;55563;52.416;13.548;2022-10-31T09:30:52;101724.69;;;14.13;100.00
68594;BME280;55563;52.416;13.548;2022-10-31T09:33:14;101736.28;;;14.12;100.00
68594;BME280;55563;52.416;13.548;2022-10-31T09:35:21;101727.56;;;14.12;100.00
68594;BME280;55563;52.416;13.548;2022-10-31T09:37:22;101734.72;;;14.16;100.00
68594;BME280;55563;52.416;13.548;2022-10-31T09:39:23;101729.97;;;14.13;100.00
68594;BME280;55563;52.416;13.548;2022-10-31T09:41:47;101741.06;;;14.15;100.00
68594;BME280;55563;52.416;13.548;2022-10-31T09:44:20;101729.44;;;14.16;100.00
68594;BME280;55563;52.416;13.548;2022-10-31T09:46:52;101727.03;;;14.10;100.00
68594;BME280;55563;52.416;13.548;2022-10-31T09:49:24;101733.13;;;14.15;100.00
68594;BME280;55563;52.416;13.548;2022-10-31T09:51:33;101738.25;;;14.27;100.00
68594;BME280;55563;52.416;13.548;2022-10-31T09:53:59;101745.13;;;14.28;100.00
68594;BME280;55563;52.416;13.548;2022-10-31T09:56:07;101741.50;;;14.39;100.00
68594;BME280;55563;52.416;13.548;2022-10-31T09:58:20;101742.06;;;14.41;100.00
68594;BME280;55563;52.416;13.548;2022-10-31T10:00:23;101739.19;;;14.48;100.00
68594;BME280;55563;52.416;13.548;2022-10-31T10:02:30;101747.44;;;14.56;100.00
68594;BME280;55563;52.416;13.548;2022-10-31T10:04:41;101743.97;;;14.51;100.00
68594;BME280;55563;52.416;13.548;2022-10-31T10:06:50;101743.19;;;14.55;100.00
68594;BME280;55563;52.416;13.548;2022-10-31T10:09:11;101742.41;;;14.60;100.00
68594;BME280;55563;52.416;13.548;2022-10-31T10:11:42;101740.31;;;14.62;100.00
68594;BME280;55563;52.416;13.548;2022-10-31T10:14:16;101753.56;;;14.67;100.00
68594;BME280;55563;52.416;13.548;2022-10-31T10:16:36;101742.50;;;14.80;100.00
68594;BME280;55563;52.416;13.548;2022-10-31T10:19:21;101740.13;;;14.83;100.00
68594;BME280;55563;52.416;13.548;2022-10-31T10:21:24;101736.75;;;14.98;100.00
68594;BME280;55563;52.416;13.548;2022-10-31T10:23:52;101727.22;;;15.02;100.00
68594;BME280;55563;52.416;13.548;2022-10-31T10:26:09;101730.16;;;15.11;100.00
68594;BME280;55563;52.416;13.548;2022-10-31T10:28:21;101734.66;;;15.20;100.00
68594;BME280;55563;52.416;13.548;2022-10-31T10:30:39;101728.34;;;15.32;100.00
68594;BME280;55563;52.416;13.548;2022-10-31T10:32:48;101731.31;;;15.55;100.00
68594;BME280;55563;52.416;13.548;2022-10-31T10:34:53;101727.34;;;15.68;100.00
68594;BME280;55563;52.416;13.548;2022-10-31T10:36:58;101730.78;;;15.68;100.00
68594;BME280;55563;52.416;13.548;2022-10-31T10:39:08;101723.38;;;15.81;100.00
68594;BME280;55563;52.416;13.548;2022-10-31T10:41:16;101727.63;;;15.87;100.00
68594;BME280;55563;52.416;13.548;2022-10-31T10:43:24;101718.28;;;16.20;100.00
68594;BME280;55563;52.416;13.548;2022-10-31T10:45:27;101720.16;;;16.09;100.00
68594;BME280;55563;52.416;13.548;2022-10-31T10:47:55;101711.94;;;15.95;100.00
68594;BME280;55563;52.416;13.548;2022-10-31T10:50:00;101718.56;;;16.03;100.00
68594;BME280;55563;52.416;13.548;2022-10-31T10:52:29;101712.44;;;16.02;100.00
68594;BME280;55563;52.416;13.548;2022-10-31T10:57:11;101706.03;;;16.29;100.00
68594;BME280;55563;52.416;13.548;2022-10-31T10:59:17;101714.03;;;16.19;100.00
68594;BME280;55563;52.416;13.548;2022-10-31T11:01:18;101712.44;;;16.12;100.00
68594;BME280;55563;52.416;13.548;2022-10-31T11:03:19;101704.22;;;16.09;100.00
68594;BME280;55563;52.416;13.548;2022-10-31T11:05:28;101710.09;;;16.06;100.00
68594;BME280;55563;52.416;13.548;2022-10-31T11:07:45;101722.25;;;16.07;100.00
68594;BME280;55563;52.416;13.548;2022-10-31T11:09:46;101714.84;;;16.09;100.00
68594;BME280;55563;52.416;13.548;2022-10-31T11:11:47;101714.28;;;16.12;100.00